createdAt,value
2022-11-23T00:01:59.703Z,4.966125
2022-11-23T00:05:24.896Z,4.986267
2022-11-23T00:08:50.097Z,5.016479
2022-11-23T00:12:15.414Z,5.066833
2022-11-23T00:15:40.480Z,5.1474
2022-11-23T00:19:05.690Z,5.1474
2022-11-23T00:22:30.928Z,5.167542
2022-11-23T00:25:56.167Z,5.238037
2022-11-23T00:29:21.441Z,5.197754
2022-11-23T00:32:46.660Z,5.167542
2022-11-23T00:36:11.876Z,5.117188
2022-11-23T00:39:37.097Z,5.127258
2022-11-23T00:43:02.350Z,5.1474
2022-11-23T00:46:27.605Z,5.238037
2022-11-23T00:49:52.824Z,5.238037
2022-11-23T00:53:18.044Z,5.207825
2022-11-23T00:56:43.292Z,5.197754
2022-11-23T01:00:08.532Z,5.207825
2022-11-23T01:03:33.764Z,5.197754
2022-11-23T01:06:58.966Z,5.197754
2022-11-23T01:10:24.193Z,5.127258
2022-11-23T01:13:49.417Z,5.1474
2022-11-23T01:17:14.643Z,5.127258
2022-11-23T01:20:39.900Z,5.1474
2022-11-23T01:24:05.112Z,5.117188
2022-11-23T01:27:30.352Z,5.127258
2022-11-23T01:30:55.559Z,5.066833
2022-11-23T01:34:20.822Z,5.086975
2022-11-23T01:37:46.058Z,5.167542
2022-11-23T01:41:11.272Z,5.27832
2022-11-23T01:44:36.493Z,5.248108
2022-11-23T01:48:01.715Z,5.248108
2022-11-23T01:51:26.965Z,5.27832
2022-11-23T01:54:52.234Z,5.298462
2022-11-23T01:58:17.478Z,5.238037
2022-11-23T02:01:42.752Z,5.238037
2022-11-23T02:05:07.958Z,5.26825
2022-11-23T02:08:33.204Z,5.358887
2022-11-23T02:11:58.447Z,5.39917
2022-11-23T02:15:23.638Z,5.389099
2022-11-23T02:18:48.891Z,5.298462
2022-11-23T02:22:14.114Z,5.298462
2022-11-23T02:25:39.353Z,5.298462
2022-11-23T02:29:04.632Z,5.298462
2022-11-23T02:32:29.816Z,5.308533
2022-11-23T02:35:55.028Z,5.328674
2022-11-23T02:39:20.263Z,5.308533
2022-11-23T02:42:45.499Z,5.26825
2022-11-23T02:46:10.741Z,5.27832
2022-11-23T02:49:35.933Z,5.328674
2022-11-23T02:53:01.177Z,5.389099
2022-11-23T02:56:26.470Z,5.328674
2022-11-23T02:59:51.675Z,5.26825
2022-11-23T03:03:16.968Z,5.238037
2022-11-23T03:06:42.153Z,5.248108
2022-11-23T03:10:07.377Z,5.27832
2022-11-23T03:13:32.644Z,5.238037
2022-11-23T03:16:57.877Z,5.207825
2022-11-23T03:20:23.133Z,5.097046
2022-11-23T03:23:48.367Z,5.036621
2022-11-23T03:27:13.610Z,5.016479
2022-11-23T03:30:38.830Z,5.036621
2022-11-23T03:34:04.057Z,5.02655
2022-11-23T03:37:29.337Z,4.956055
2022-11-23T03:40:54.555Z,5.02655
2022-11-23T03:44:19.799Z,5.097046
2022-11-23T03:47:45.043Z,5.127258
2022-11-23T03:51:10.273Z,5.086975
2022-11-23T03:54:35.580Z,5.086975
2022-11-23T03:58:00.778Z,5.066833
2022-11-23T04:01:26.118Z,5.056763
2022-11-23T04:04:51.271Z,5.02655
2022-11-23T04:08:16.500Z,5.02655
2022-11-23T04:11:41.774Z,5.056763
2022-11-23T04:15:06.955Z,5.127258
2022-11-23T04:18:32.203Z,5.177612
2022-11-23T04:21:57.455Z,5.177612
2022-11-23T04:25:22.693Z,5.097046
2022-11-23T04:28:47.948Z,5.016479
2022-11-23T04:32:13.170Z,4.915771
2022-11-23T04:35:38.387Z,4.935913
2022-11-23T04:39:03.655Z,4.915771
2022-11-23T04:42:28.903Z,4.935913
2022-11-23T04:45:54.144Z,4.966125
2022-11-23T04:49:19.364Z,5.016479
2022-11-23T04:52:44.630Z,5.02655
2022-11-23T04:56:09.896Z,5.097046
2022-11-23T04:59:35.160Z,5.097046
2022-11-23T05:03:00.386Z,5.036621
2022-11-23T05:06:25.578Z,5.02655
2022-11-23T05:09:50.791Z,4.986267
2022-11-23T05:13:16.039Z,4.986267
2022-11-23T05:16:41.283Z,4.986267
2022-11-23T05:20:06.527Z,4.966125
2022-11-23T05:23:31.740Z,4.956055
2022-11-23T05:26:56.971Z,4.986267
2022-11-23T05:30:22.187Z,4.986267
2022-11-23T05:33:47.465Z,4.966125
2022-11-23T05:37:12.705Z,4.915771
2022-11-23T05:40:37.914Z,5.036621
2022-11-23T05:44:03.152Z,5.036621
2022-11-23T05:47:28.383Z,5.016479
2022-11-23T05:50:53.615Z,4.996338
2022-11-23T05:54:18.894Z,5.02655
2022-11-23T05:57:44.109Z,4.996338
2022-11-23T06:01:09.327Z,5.02655
2022-11-23T06:04:34.521Z,5.056763
2022-11-23T06:07:59.760Z,5.056763
2022-11-23T06:11:25.024Z,5.056763
2022-11-23T06:14:50.316Z,4.996338
2022-11-23T06:18:15.525Z,5.016479
2022-11-23T06:21:40.764Z,4.956055
2022-11-23T06:25:05.976Z,4.905701
2022-11-23T06:28:31.230Z,4.966125
2022-11-23T06:31:56.425Z,4.986267
2022-11-23T06:35:21.661Z,4.935913
2022-11-23T06:38:46.892Z,4.996338
2022-11-23T06:42:36.975Z,4.915771
2022-11-23T06:45:37.379Z,4.966125
2022-11-23T06:49:02.591Z,5.086975
2022-11-23T06:52:27.815Z,5.127258
2022-11-23T06:55:53.028Z,5.177612
2022-11-23T06:59:18.263Z,5.177612
2022-11-23T07:02:43.517Z,5.27832
2022-11-23T07:06:08.742Z,5.27832
2022-11-23T07:09:34.234Z,5.348816
2022-11-23T07:12:59.197Z,5.348816
2022-11-23T07:16:24.427Z,5.379028
2022-11-23T07:19:49.667Z,5.348816
2022-11-23T07:23:14.871Z,5.348816
2022-11-23T07:26:40.075Z,5.358887
2022-11-23T07:30:05.336Z,5.358887
2022-11-23T07:33:30.558Z,5.27832
2022-11-23T07:36:59.229Z,5.358887
2022-11-23T07:40:21.045Z,5.298462
2022-11-23T07:43:46.249Z,5.328674
2022-11-23T07:47:11.467Z,5.39917
2022-11-23T07:50:36.749Z,5.489807
2022-11-23T07:54:02.023Z,5.580444
2022-11-23T07:57:27.256Z,5.711365
2022-11-23T08:00:52.504Z,5.761719
2022-11-23T08:04:17.783Z,5.711365
2022-11-23T08:07:43.094Z,5.640869
2022-11-23T08:11:08.291Z,5.681152
2022-11-23T08:14:33.773Z,5.671082
2022-11-23T08:17:58.776Z,5.721436
2022-11-23T08:21:24.010Z,5.78186
2022-11-23T08:24:49.297Z,5.832214
2022-11-23T08:28:14.558Z,5.832214
2022-11-23T08:31:39.761Z,5.832214
2022-11-23T08:35:05.035Z,5.912781
2022-11-23T08:38:30.216Z,5.90271
2022-11-23T08:41:55.930Z,5.932922
2022-11-23T08:45:21.144Z,6.083984
2022-11-23T08:48:46.334Z,6.184692
2022-11-23T08:52:11.565Z,6.15448
2022-11-23T08:55:36.756Z,6.063843
2022-11-23T08:59:01.970Z,6.043701
2022-11-23T09:02:27.196Z,5.963135
2022-11-23T09:05:52.410Z,5.973206
2022-11-23T09:09:17.624Z,5.963135
2022-11-23T09:12:42.860Z,6.003418
2022-11-23T09:16:08.052Z,6.063843
2022-11-23T09:19:33.279Z,6.094055
2022-11-23T09:22:58.476Z,6.094055
2022-11-23T09:26:23.668Z,6.144409
2022-11-23T09:29:48.884Z,6.174622
2022-11-23T09:33:14.109Z,6.305542
2022-11-23T09:36:39.358Z,6.355896
2022-11-23T09:40:04.634Z,6.335754
2022-11-23T09:43:29.863Z,6.365967
2022-11-23T09:46:55.210Z,6.426392
2022-11-23T09:50:20.297Z,6.214905
2022-11-23T09:53:45.504Z,6.174622
2022-11-23T09:57:10.659Z,6.15448
2022-11-23T10:00:35.844Z,6.15448
2022-11-23T10:04:01.047Z,6.124268
2022-11-23T10:07:26.279Z,6.124268
2022-11-23T10:10:51.464Z,6.114197
2022-11-23T10:14:16.710Z,6.083984
2022-11-23T10:17:41.910Z,5.963135
2022-11-23T10:21:07.159Z,5.932922
2022-11-23T10:24:32.497Z,5.963135
2022-11-23T10:27:57.600Z,6.094055
2022-11-23T10:31:22.763Z,6.224976
2022-11-23T10:34:47.960Z,6.335754
2022-11-23T10:38:18.295Z,6.335754
2022-11-23T10:41:38.380Z,6.265259
2022-11-23T10:45:03.605Z,6.305542
2022-11-23T10:48:28.823Z,6.365967
2022-11-23T10:51:54.047Z,6.325684
2022-11-23T10:55:19.252Z,6.476746
2022-11-23T10:58:44.471Z,6.456604
2022-11-23T11:02:09.731Z,6.587524
2022-11-23T11:06:07.925Z,6.668091
2022-11-23T11:09:03.852Z,6.728516
2022-11-23T11:12:28.268Z,6.758728
2022-11-23T11:15:53.460Z,6.688232
2022-11-23T11:19:18.725Z,6.708374
2022-11-23T11:22:47.694Z,6.758728
2022-11-23T11:26:09.136Z,6.637878
2022-11-23T11:29:38.863Z,6.637878
2022-11-23T11:32:59.536Z,6.577454
2022-11-23T11:36:24.877Z,6.577454
2022-11-23T11:39:49.969Z,6.53717
2022-11-23T11:43:15.174Z,6.65802
2022-11-23T11:46:40.397Z,6.587524
2022-11-23T11:50:05.585Z,6.688232
2022-11-23T11:53:30.836Z,6.738586
2022-11-23T11:56:56.021Z,6.849365
2022-11-23T12:00:21.226Z,6.970215
2022-11-23T12:03:46.469Z,6.950073
2022-11-23T12:07:11.734Z,6.879578
2022-11-23T12:10:36.908Z,6.889648
2022-11-23T12:14:02.103Z,6.728516
2022-11-23T12:17:32.637Z,6.728516
2022-11-23T12:20:52.501Z,6.728516
2022-11-23T12:24:17.709Z,6.708374
2022-11-23T12:27:48.164Z,6.688232
2022-11-23T12:31:08.153Z,6.65802
2022-11-23T12:34:33.575Z,6.607666
2022-11-23T12:37:58.604Z,6.637878
2022-11-23T12:41:23.798Z,6.708374
2022-11-23T12:44:49.032Z,6.637878
2022-11-23T12:48:14.240Z,6.486816
2022-11-23T12:51:39.480Z,6.40625
2022-11-23T12:55:05.490Z,6.506958
2022-11-23T12:58:30.761Z,6.577454
2022-11-23T13:01:56.449Z,6.637878
2022-11-23T13:05:21.589Z,6.728516
2022-11-23T13:08:46.917Z,6.758728
2022-11-23T13:12:12.175Z,6.799011
2022-11-23T13:15:37.457Z,6.849365
2022-11-23T13:19:04.809Z,6.738586
2022-11-23T13:22:27.960Z,6.708374
2022-11-23T13:25:53.233Z,6.758728
2022-11-23T13:29:18.520Z,6.758728
2022-11-23T13:32:43.847Z,6.839294
2022-11-23T13:36:12.589Z,6.849365
2022-11-23T13:39:34.522Z,6.839294
2022-11-23T13:42:59.628Z,6.839294
2022-11-23T13:46:24.976Z,6.738586
2022-11-23T13:49:50.144Z,6.728516
2022-11-23T13:53:15.446Z,6.768799
2022-11-23T13:56:40.722Z,6.768799
2022-11-23T14:00:06.021Z,6.688232
2022-11-23T14:03:31.241Z,6.688232
2022-11-23T14:06:56.507Z,6.668091
2022-11-23T14:10:21.774Z,6.698303
2022-11-23T14:13:47.054Z,6.668091
2022-11-23T14:17:12.325Z,6.668091
2022-11-23T14:20:37.593Z,6.637878
2022-11-23T14:24:02.840Z,6.637878
2022-11-23T14:27:46.583Z,6.587524
2022-11-23T15:04:15.141Z,6.396179
2022-11-23T15:07:40.352Z,6.305542
2022-11-23T15:11:05.541Z,6.144409
2022-11-23T15:14:31.208Z,6.094055
2022-11-23T15:17:56.124Z,5.993347
2022-11-23T15:21:25.520Z,5.90271
2022-11-23T15:24:46.604Z,5.832214
2022-11-23T15:28:11.887Z,5.761719
2022-11-23T15:31:37.190Z,5.630798
2022-11-23T15:35:02.319Z,5.570374
2022-11-23T15:38:27.612Z,5.459595
2022-11-23T15:41:52.828Z,5.308533
2022-11-23T15:45:18.049Z,5.27832
2022-11-23T15:48:43.297Z,5.248108
2022-11-23T15:52:08.572Z,5.238037
2022-11-23T15:55:33.870Z,5.1474
2022-11-23T15:58:59.061Z,5.117188
2022-11-23T16:02:24.660Z,5.056763
2022-11-23T16:05:49.622Z,4.935913
2022-11-23T16:09:43.202Z,4.875488
2022-11-23T16:12:40.173Z,4.734497
2022-11-23T16:16:05.390Z,4.77478
2022-11-23T16:19:31.058Z,4.784851
2022-11-23T16:22:55.891Z,4.704285
2022-11-23T16:26:21.173Z,4.553223
2022-11-23T16:29:46.413Z,4.321594
2022-11-23T16:33:11.658Z,4.230957
2022-11-23T16:36:36.885Z,4.120178
2022-11-23T16:40:02.197Z,4.14032
2022-11-23T16:43:27.450Z,4.160461
2022-11-23T16:46:52.790Z,4.220886
2022-11-23T16:50:18.001Z,4.27124
2022-11-23T16:54:11.743Z,4.230957
2022-11-23T16:57:08.582Z,4.110107
2022-11-23T17:00:33.885Z,3.959045
2022-11-23T17:03:59.263Z,3.908691
2022-11-23T17:07:24.503Z,3.979187
2022-11-23T17:10:49.713Z,4.120178
2022-11-23T17:14:18.392Z,4.150391
2022-11-23T17:17:40.283Z,4.150391
2022-11-23T17:21:05.589Z,4.14032
2022-11-23T17:24:31.085Z,4.01947
2022-11-23T17:27:56.064Z,3.938904
2022-11-23T17:31:21.351Z,3.797913
2022-11-23T17:34:46.592Z,3.727417
2022-11-23T17:38:11.837Z,3.677063
2022-11-23T17:41:37.070Z,3.687134
2022-11-23T17:45:02.431Z,3.697205
2022-11-23T17:48:27.706Z,3.687134
2022-11-23T17:51:52.957Z,3.747559
2022-11-23T17:55:18.319Z,3.677063
2022-11-23T17:58:43.507Z,3.677063
2022-11-23T18:02:08.745Z,3.677063
2022-11-23T18:05:33.963Z,3.616638
2022-11-23T18:08:59.192Z,3.576355
2022-11-23T18:12:24.450Z,3.546143
2022-11-23T18:15:49.668Z,3.445435
2022-11-23T18:19:14.852Z,3.364868
2022-11-23T18:22:40.091Z,3.334656
2022-11-23T18:26:05.330Z,3.324585
2022-11-23T18:29:31.064Z,3.284302
2022-11-23T18:32:55.812Z,3.233948
2022-11-23T18:36:21.019Z,3.26416
2022-11-23T18:39:46.235Z,3.26416
2022-11-23T18:43:11.451Z,3.244019
2022-11-23T18:46:36.771Z,3.244019
2022-11-23T18:50:06.118Z,3.284302
2022-11-23T18:53:27.135Z,3.244019
2022-11-23T18:56:52.378Z,3.284302
2022-11-23T19:00:17.621Z,3.364868
2022-11-23T19:03:43.123Z,3.38501
2022-11-23T19:07:08.333Z,3.395081
2022-11-23T19:10:33.527Z,3.425293
2022-11-23T19:13:58.785Z,3.38501
2022-11-23T19:17:24.011Z,3.244019
2022-11-23T19:20:49.306Z,3.213806
2022-11-23T19:24:14.545Z,3.173523
2022-11-23T19:27:39.841Z,3.173523
2022-11-23T19:31:05.159Z,3.143311
2022-11-23T19:34:30.405Z,3.173523
2022-11-23T19:37:55.639Z,3.153381
2022-11-23T19:41:24.099Z,3.052673
2022-11-23T19:44:46.124Z,3.103027
2022-11-23T19:48:11.360Z,3.103027
2022-11-23T19:51:36.733Z,3.183594
2022-11-23T19:55:01.998Z,3.153381
2022-11-23T19:58:27.269Z,3.062744
2022-11-23T20:01:52.683Z,3.002319
2022-11-23T20:05:17.826Z,3.062744
2022-11-23T20:08:43.074Z,3.13324
2022-11-23T20:12:08.356Z,3.183594
2022-11-23T20:15:33.568Z,3.113098
2022-11-23T20:18:58.831Z,3.153381
2022-11-23T20:22:24.065Z,3.113098
2022-11-23T20:25:49.341Z,2.962036
2022-11-23T20:29:14.612Z,3.022461
2022-11-23T20:32:39.816Z,3.183594
2022-11-23T20:36:05.042Z,3.324585
2022-11-23T20:39:30.356Z,3.445435
2022-11-23T20:42:55.594Z,3.38501
2022-11-23T20:46:38.514Z,3.324585
2022-11-23T20:49:46.082Z,3.284302
2022-11-23T20:53:11.305Z,3.26416
2022-11-23T20:56:36.512Z,3.294373
2022-11-23T21:00:01.747Z,3.324585
2022-11-23T21:03:27.002Z,3.314514
2022-11-23T21:06:52.151Z,3.314514
2022-11-23T21:10:17.361Z,3.324585
2022-11-23T21:13:49.451Z,3.314514
2022-11-23T21:17:07.872Z,3.183594
2022-11-23T21:20:36.473Z,3.022461
2022-11-23T21:23:58.582Z,2.901611
2022-11-23T21:27:23.772Z,2.891541
2022-11-23T21:30:48.970Z,2.931824
2022-11-23T21:34:14.189Z,2.901611
2022-11-23T21:37:39.449Z,2.821045
2022-11-23T21:41:04.627Z,2.780762
2022-11-23T21:44:29.846Z,2.780762
2022-11-23T21:47:55.072Z,2.821045
2022-11-23T21:51:20.300Z,2.901611
2022-11-23T21:54:48.919Z,3.022461
2022-11-23T21:58:10.736Z,3.052673
2022-11-23T22:01:35.936Z,2.992249
2022-11-23T22:05:01.158Z,2.962036
2022-11-23T22:08:29.071Z,3.032532
2022-11-23T22:11:51.613Z,3.153381
2022-11-23T22:15:16.802Z,3.173523
2022-11-23T22:18:42.012Z,3.284302
2022-11-23T22:22:07.242Z,3.38501
2022-11-23T22:25:32.445Z,3.425293
2022-11-23T22:28:57.708Z,3.536072
2022-11-23T22:32:22.898Z,3.576355
2022-11-23T22:35:48.107Z,3.596497
2022-11-23T22:39:13.345Z,3.646851
2022-11-23T22:42:38.598Z,3.757629
2022-11-23T22:46:05.568Z,3.828125
2022-11-23T22:49:29.011Z,3.928833
2022-11-23T22:52:54.245Z,3.928833
2022-11-23T22:56:19.449Z,3.898621
2022-11-23T22:59:44.660Z,3.878479
2022-11-23T23:03:09.987Z,3.928833
2022-11-23T23:06:35.180Z,3.938904
2022-11-23T23:10:00.310Z,3.969116
2022-11-23T23:13:25.526Z,3.999329
2022-11-23T23:16:50.804Z,3.999329
2022-11-23T23:20:15.981Z,3.938904
2022-11-23T23:23:41.187Z,3.878479
2022-11-23T23:27:06.413Z,3.858337
2022-11-23T23:30:31.630Z,3.928833
2022-11-23T23:33:56.851Z,3.878479
2022-11-23T23:37:22.092Z,3.757629
2022-11-23T23:40:47.272Z,3.727417
2022-11-23T23:44:12.481Z,3.747559
2022-11-23T23:47:37.727Z,3.828125
2022-11-23T23:51:02.956Z,3.858337
2022-11-23T23:54:28.180Z,3.928833
2022-11-23T23:57:53.389Z,3.938904
